sensor_id;sensor_type;location;lat;lon;timestamp;pressure;altitude;pressure_sealevel;temperature;humidity
62248;BME280;48237;50.140;8.486;2023-02-18T00:01:32;100323.01;;;13.32;88.59
62248;BME280;48237;50.140;8.486;2023-02-18T00:04:00;100325.65;;;13.47;87.18
62248;BME280;48237;50.140;8.486;2023-02-18T00:06:30;100326.56;;;13.54;87.25
62248;BME280;48237;50.140;8.486;2023-02-18T00:08:58;100323.02;;;12.96;89.81
62248;BME280;48237;50.140;8.486;2023-02-18T00:11:25;100323.12;;;13.38;87.70
62248;BME280;48237;50.140;8.486;2023-02-18T00:13:55;100317.26;;;12.28;93.27
62248;BME280;48237;50.140;8.486;2023-02-18T00:16:25;100314.18;;;12.06;94.15
62248;BME280;48237;50.140;8.486;2023-02-18T00:18:54;100309.58;;;11.79;94.92
62248;BME280;48237;50.140;8.486;2023-02-18T00:21:21;100304.16;;;12.09;93.23
62248;BME280;48237;50.140;8.486;2023-02-18T00:23:48;100305.97;;;11.88;95.98
62248;BME280;48237;50.140;8.486;2023-02-18T00:26:17;100309.17;;;11.78;96.13
62248;BME280;48237;50.140;8.486;2023-02-18T00:28:46;100315.56;;;11.47;96.98
62248;BME280;48237;50.140;8.486;2023-02-18T00:31:15;100320.17;;;11.68;96.13
62248;BME280;48237;50.140;8.486;2023-02-18T00:33:43;100317.69;;;11.65;96.73
62248;BME280;48237;50.140;8.486;2023-02-18T00:36:12;100323.13;;;11.84;96.22
62248;BME280;48237;50.140;8.486;2023-02-18T00:38:43;100318.01;;;11.59;98.51
62248;BME280;48237;50.140;8.486;2023-02-18T00:41:11;100317.87;;;12.45;93.82
62248;BME280;48237;50.140;8.486;2023-02-18T00:43:38;100316.91;;;12.30;93.68
62248;BME280;48237;50.140;8.486;2023-02-18T00:46:05;100317.69;;;12.08;94.26
62248;BME280;48237;50.140;8.486;2023-02-18T00:48:32;100314.72;;;11.77;98.67
62248;BME280;48237;50.140;8.486;2023-02-18T00:51:00;100313.29;;;12.22;95.86
62248;BME280;48237;50.140;8.486;2023-02-18T00:53:27;100311.71;;;12.64;95.41
62248;BME280;48237;50.140;8.486;2023-02-18T00:55:54;100312.06;;;12.15;96.53
62248;BME280;48237;50.140;8.486;2023-02-18T00:58:21;100315.16;;;11.51;99.54
62248;BME280;48237;50.140;8.486;2023-02-18T01:00:48;100321.01;;;11.57;99.58
62248;BME280;48237;50.140;8.486;2023-02-18T01:03:17;100320.90;;;12.21;95.33
62248;BME280;48237;50.140;8.486;2023-02-18T01:05:44;100319.01;;;11.81;98.55
62248;BME280;48237;50.140;8.486;2023-02-18T01:08:11;100318.63;;;11.46;99.81
62248;BME280;48237;50.140;8.486;2023-02-18T01:10:41;100315.09;;;11.46;97.88
62248;BME280;48237;50.140;8.486;2023-02-18T01:13:09;100314.63;;;11.63;98.76
62248;BME280;48237;50.140;8.486;2023-02-18T01:15:36;100317.26;;;12.15;95.45
62248;BME280;48237;50.140;8.486;2023-02-18T01:18:04;100317.89;;;11.69;98.05
62248;BME280;48237;50.140;8.486;2023-02-18T01:20:32;100311.41;;;12.46;93.99
62248;BME280;48237;50.140;8.486;2023-02-18T01:22:58;100317.09;;;11.23;100.00
62248;BME280;48237;50.140;8.486;2023-02-18T01:25:26;100307.16;;;11.36;100.00
62248;BME280;48237;50.140;8.486;2023-02-18T01:27:53;100309.77;;;11.26;100.00
62248;BME280;48237;50.140;8.486;2023-02-18T01:30:20;100303.96;;;10.89;100.00
62248;BME280;48237;50.140;8.486;2023-02-18T01:32:47;100299.94;;;10.97;100.00
62248;BME280;48237;50.140;8.486;2023-02-18T01:35:16;100298.32;;;9.77;100.00
62248;BME280;48237;50.140;8.486;2023-02-18T01:37:44;100297.22;;;11.28;100.00
62248;BME280;48237;50.140;8.486;2023-02-18T01:40:14;100305.25;;;11.16;100.00
62248;BME280;48237;50.140;8.486;2023-02-18T01:42:42;100296.97;;;11.34;100.00
62248;BME280;48237;50.140;8.486;2023-02-18T01:46:17;100286.38;;;10.69;100.00
62248;BME280;48237;50.140;8.486;2023-02-18T01:48:48;100282.92;;;11.54;98.72
62248;BME280;48237;50.140;8.486;2023-02-18T01:51:20;100278.75;;;11.78;97.10
62248;BME280;48237;50.140;8.486;2023-02-18T01:53:53;100275.79;;;11.96;95.16
62248;BME280;48237;50.140;8.486;2023-02-18T01:56:25;100283.26;;;11.35;97.80
62248;BME280;48237;50.140;8.486;2023-02-18T01:58:55;100277.16;;;11.90;94.69
62248;BME280;48237;50.140;8.486;2023-02-18T02:01:25;100276.55;;;11.73;94.05
62248;BME280;48237;50.140;8.486;2023-02-18T02:03:52;100278.03;;;11.65;93.96
62248;BME280;48237;50.140;8.486;2023-02-18T02:06:22;100279.49;;;11.54;94.56
62248;BME280;48237;50.140;8.486;2023-02-18T02:08:52;100276.92;;;11.40;95.91
62248;BME280;48237;50.140;8.486;2023-02-18T02:11:26;100274.69;;;11.10;99.14
62248;BME280;48237;50.140;8.486;2023-02-18T02:14:10;100271.56;;;11.06;100.00
62248;BME280;48237;50.140;8.486;2023-02-18T02:16:46;100271.28;;;10.28;100.00
62248;BME280;48237;50.140;8.486;2023-02-18T02:19:39;100263.17;;;10.93;100.00
62248;BME280;48237;50.140;8.486;2023-02-18T02:22:36;100268.92;;;11.22;99.57
62248;BME280;48237;50.140;8.486;2023-02-18T02:25:18;100264.70;;;11.36;98.40
62248;BME280;48237;50.140;8.486;2023-02-18T02:28:07;100270.58;;;11.38;98.89
62248;BME280;48237;50.140;8.486;2023-02-18T02:30:51;100274.95;;;10.92;99.26
62248;BME280;48237;50.140;8.486;2023-02-18T02:34:19;100264.09;;;12.05;94.52
62248;BME280;48237;50.140;8.486;2023-02-18T02:36:54;100261.23;;;11.48;95.08
62248;BME280;48237;50.140;8.486;2023-02-18T02:39:30;100260.23;;;10.25;100.00
62248;BME280;48237;50.140;8.486;2023-02-18T02:42:06;100244.42;;;10.72;99.26
62248;BME280;48237;50.140;8.486;2023-02-18T02:44:41;100239.04;;;11.25;97.75
62248;BME280;48237;50.140;8.486;2023-02-18T02:47:18;100238.31;;;11.24;98.60
62248;BME280;48237;50.140;8.486;2023-02-18T02:49:49;100233.64;;;11.93;93.97
62248;BME280;48237;50.140;8.486;2023-02-18T02:52:22;100235.06;;;11.59;96.69
62248;BME280;48237;50.140;8.486;2023-02-18T02:54:51;100238.13;;;11.29;98.16
62248;BME280;48237;50.140;8.486;2023-02-18T02:57:52;100238.88;;;11.92;92.71
62248;BME280;48237;50.140;8.486;2023-02-18T03:00:24;100235.46;;;11.98;92.76
62248;BME280;48237;50.140;8.486;2023-02-18T03:03:24;100239.32;;;11.68;93.77
62248;BME280;48237;50.140;8.486;2023-02-18T03:06:12;100242.47;;;11.59;94.73
62248;BME280;48237;50.140;8.486;2023-02-18T03:08:51;100240.84;;;12.30;88.82
62248;BME280;48237;50.140;8.486;2023-02-18T03:11:21;100246.41;;;11.75;91.28
62248;BME280;48237;50.140;8.486;2023-02-18T03:13:56;100248.86;;;10.41;99.79
62248;BME280;48237;50.140;8.486;2023-02-18T03:16:29;100238.83;;;11.89;93.09
62248;BME280;48237;50.140;8.486;2023-02-18T03:19:08;100229.49;;;11.72;93.12
62248;BME280;48237;50.140;8.486;2023-02-18T03:21:41;100225.37;;;11.61;92.51
62248;BME280;48237;50.140;8.486;2023-02-18T03:24:14;100228.30;;;12.23;86.98
62248;BME280;48237;50.140;8.486;2023-02-18T03:26:46;100226.16;;;12.27;87.21
62248;BME280;48237;50.140;8.486;2023-02-18T03:29:15;100218.81;;;12.87;86.79
62248;BME280;48237;50.140;8.486;2023-02-18T03:31:48;100224.51;;;12.64;88.03
62248;BME280;48237;50.140;8.486;2023-02-18T03:34:22;100225.28;;;12.31;87.79
62248;BME280;48237;50.140;8.486;2023-02-18T03:36:52;100236.27;;;11.59;91.42
62248;BME280;48237;50.140;8.486;2023-02-18T03:39:22;100233.50;;;12.46;87.73
62248;BME280;48237;50.140;8.486;2023-02-18T03:41:50;100233.27;;;11.27;93.77
62248;BME280;48237;50.140;8.486;2023-02-18T03:44:18;100230.89;;;12.21;90.36
62248;BME280;48237;50.140;8.486;2023-02-18T03:46:46;100230.98;;;12.24;89.02
62248;BME280;48237;50.140;8.486;2023-02-18T03:49:14;100224.73;;;11.84;94.93
62248;BME280;48237;50.140;8.486;2023-02-18T03:51:43;100220.41;;;11.60;94.27
62248;BME280;48237;50.140;8.486;2023-02-18T03:54:10;100221.19;;;11.86;94.73
62248;BME280;48237;50.140;8.486;2023-02-18T03:56:38;100218.04;;;11.92;94.18
62248;BME280;48237;50.140;8.486;2023-02-18T03:59:05;100223.14;;;10.33;100.00
62248;BME280;48237;50.140;8.486;2023-02-18T04:01:32;100214.72;;;11.41;99.03
62248;BME280;48237;50.140;8.486;2023-02-18T04:03:59;100210.98;;;11.66;97.32
62248;BME280;48237;50.140;8.486;2023-02-18T04:06:26;100210.24;;;11.96;95.00
62248;BME280;48237;50.140;8.486;2023-02-18T04:08:52;100208.54;;;11.51;97.79
62248;BME280;48237;50.140;8.486;2023-02-18T04:11:20;100207.35;;;12.09;94.90
62248;BME280;48237;50.140;8.486;2023-02-18T04:13:46;100208.14;;;11.33;99.95
62248;BME280;48237;50.140;8.486;2023-02-18T04:16:13;100209.48;;;11.66;94.81
62248;BME280;48237;50.140;8.486;2023-02-18T04:18:40;100208.23;;;12.21;93.77
62248;BME280;48237;50.140;8.486;2023-02-18T04:21:07;100203.90;;;12.22;94.21
62248;BME280;48237;50.140;8.486;2023-02-18T04:23:34;100205.79;;;11.50;96.27
62248;BME280;48237;50.140;8.486;2023-02-18T04:26:02;100211.20;;;11.72;95.30
62248;BME280;48237;50.140;8.486;2023-02-18T04:28:29;100214.36;;;10.78;100.00
62248;BME280;48237;50.140;8.486;2023-02-18T04:30:56;100204.56;;;12.07;95.44
62248;BME280;48237;50.140;8.486;2023-02-18T04:33:23;100203.17;;;12.11;91.93
62248;BME280;48237;50.140;8.486;2023-02-18T04:35:50;100199.50;;;12.00;93.12
62248;BME280;48237;50.140;8.486;2023-02-18T04:38:17;100198.50;;;11.56;96.45
62248;BME280;48237;50.140;8.486;2023-02-18T04:40:44;100203.34;;;10.48;100.00
62248;BME280;48237;50.140;8.486;2023-02-18T04:43:11;100198.19;;;10.83;100.00
62248;BME280;48237;50.140;8.486;2023-02-18T04:45:38;100194.98;;;11.15;100.00
62248;BME280;48237;50.140;8.486;2023-02-18T04:48:05;100196.51;;;11.36;100.00
62248;BME280;48237;50.140;8.486;2023-02-18T04:50:32;100193.07;;;10.81;100.00
62248;BME280;48237;50.140;8.486;2023-02-18T04:53:00;100190.07;;;10.24;100.00
62248;BME280;48237;50.140;8.486;2023-02-18T04:55:26;100189.86;;;9.81;100.00
62248;BME280;48237;50.140;8.486;2023-02-18T04:57:53;100190.91;;;10.30;100.00
62248;BME280;48237;50.140;8.486;2023-02-18T05:00:21;100192.56;;;9.98;100.00
62248;BME280;48237;50.140;8.486;2023-02-18T05:02:47;100181.14;;;10.36;100.00
62248;BME280;48237;50.140;8.486;2023-02-18T05:05:15;100181.77;;;10.48;100.00
62248;BME280;48237;50.140;8.486;2023-02-18T05:07:42;100171.40;;;11.45;100.00
62248;BME280;48237;50.140;8.486;2023-02-18T05:10:16;100165.36;;;11.03;100.00
62248;BME280;48237;50.140;8.486;2023-02-18T05:12:43;100167.01;;;11.03;100.00
62248;BME280;48237;50.140;8.486;2023-02-18T05:15:10;100168.11;;;11.14;100.00
62248;BME280;48237;50.140;8.486;2023-02-18T05:17:37;100174.91;;;10.48;100.00
62248;BME280;48237;50.140;8.486;2023-02-18T05:20:05;100170.39;;;10.86;100.00
62248;BME280;48237;50.140;8.486;2023-02-18T05:22:33;100162.85;;;11.27;100.00
62248;BME280;48237;50.140;8.486;2023-02-18T05:25:00;100158.02;;;11.45;100.00
62248;BME280;48237;50.140;8.486;2023-02-18T05:27:27;100157.08;;;11.95;100.00
62248;BME280;48237;50.140;8.486;2023-02-18T05:29:54;100148.51;;;11.08;100.00
62248;BME280;48237;50.140;8.486;2023-02-18T05:32:21;100147.84;;;11.17;100.00
62248;BME280;48237;50.140;8.486;2023-02-18T05:34:49;100149.19;;;11.78;100.00
62248;BME280;48237;50.140;8.486;2023-02-18T05:37:16;100152.16;;;10.30;100.00
62248;BME280;48237;50.140;8.486;2023-02-18T05:39:43;100137.33;;;11.02;100.00
62248;BME280;48237;50.140;8.486;2023-02-18T05:42:10;100142.13;;;9.79;100.00
62248;BME280;48237;50.140;8.486;2023-02-18T05:44:37;100138.90;;;10.82;100.00
62248;BME280;48237;50.140;8.486;2023-02-18T05:47:07;100127.68;;;11.38;100.00
62248;BME280;48237;50.140;8.486;2023-02-18T05:49:37;100129.23;;;10.90;100.00
62248;BME280;48237;50.140;8.486;2023-02-18T05:52:06;100129.67;;;10.93;100.00
62248;BME280;48237;50.140;8.486;2023-02-18T05:54:34;100130.93;;;11.07;100.00
62248;BME280;48237;50.140;8.486;2023-02-18T05:57:02;100133.89;;;10.56;100.00
62248;BME280;48237;50.140;8.486;2023-02-18T05:59:30;100124.74;;;9.34;100.00
62248;BME280;48237;50.140;8.486;2023-02-18T06:01:57;100113.89;;;10.65;100.00
62248;BME280;48237;50.140;8.486;2023-02-18T06:04:24;100117.08;;;11.09;100.00
62248;BME280;48237;50.140;8.486;2023-02-18T06:06:51;100109.56;;;10.84;100.00
62248;BME280;48237;50.140;8.486;2023-02-18T06:09:18;100112.09;;;11.32;100.00
62248;BME280;48237;50.140;8.486;2023-02-18T06:11:45;100116.12;;;10.94;100.00
62248;BME280;48237;50.140;8.486;2023-02-18T06:14:12;100117.71;;;10.66;100.00
62248;BME280;48237;50.140;8.486;2023-02-18T06:16:39;100118.28;;;10.59;100.00
62248;BME280;48237;50.140;8.486;2023-02-18T06:19:07;100117.37;;;10.05;100.00
62248;BME280;48237;50.140;8.486;2023-02-18T06:21:35;100114.55;;;9.95;100.00
62248;BME280;48237;50.140;8.486;2023-02-18T06:24:02;100121.99;;;10.01;100.00
62248;BME280;48237;50.140;8.486;2023-02-18T06:26:30;100122.81;;;9.31;100.00
62248;BME280;48237;50.140;8.486;2023-02-18T06:28:57;100117.26;;;10.38;100.00
62248;BME280;48237;50.140;8.486;2023-02-18T06:31:24;100111.45;;;10.66;100.00
62248;BME280;48237;50.140;8.486;2023-02-18T06:33:51;100117.08;;;10.04;100.00
62248;BME280;48237;50.140;8.486;2023-02-18T06:36:18;100125.85;;;9.52;100.00
62248;BME280;48237;50.140;8.486;2023-02-18T06:38:46;100132.18;;;9.80;100.00
62248;BME280;48237;50.140;8.486;2023-02-18T06:41:13;100128.07;;;9.47;100.00
62248;BME280;48237;50.140;8.486;2023-02-18T06:43:41;100120.61;;;9.90;100.00
62248;BME280;48237;50.140;8.486;2023-02-18T06:46:08;100128.06;;;10.05;100.00
62248;BME280;48237;50.140;8.486;2023-02-18T06:48:35;100127.79;;;10.11;100.00
62248;BME280;48237;50.140;8.486;2023-02-18T06:51:02;100123.66;;;10.54;100.00
62248;BME280;48237;50.140;8.486;2023-02-18T06:53:29;100118.03;;;10.18;100.00
62248;BME280;48237;50.140;8.486;2023-02-18T06:55:57;100112.93;;;9.85;100.00
62248;BME280;48237;50.140;8.486;2023-02-18T06:58:23;100117.08;;;10.32;100.00
62248;BME280;48237;50.140;8.486;2023-02-18T07:00:50;100110.18;;;10.13;100.00
62248;BME280;48237;50.140;8.486;2023-02-18T07:03:18;100102.19;;;10.07;100.00
62248;BME280;48237;50.140;8.486;2023-02-18T07:05:45;100104.82;;;9.45;100.00
62248;BME280;48237;50.140;8.486;2023-02-18T07:08:12;100099.51;;;10.33;100.00
62248;BME280;48237;50.140;8.486;2023-02-18T07:10:40;100095.77;;;10.63;100.00
62248;BME280;48237;50.140;8.486;2023-02-18T07:13:07;100099.62;;;10.81;100.00
62248;BME280;48237;50.140;8.486;2023-02-18T07:15:34;100098.84;;;10.16;100.00
62248;BME280;48237;50.140;8.486;2023-02-18T07:18:02;100099.80;;;9.71;100.00
62248;BME280;48237;50.140;8.486;2023-02-18T07:20:29;100094.24;;;10.67;100.00
62248;BME280;48237;50.140;8.486;2023-02-18T07:22:56;100093.48;;;10.21;100.00
62248;BME280;48237;50.140;8.486;2023-02-18T07:25:24;100098.40;;;10.42;96.74
62248;BME280;48237;50.140;8.486;2023-02-18T07:27:52;100099.67;;;10.20;97.36
62248;BME280;48237;50.140;8.486;2023-02-18T07:30:19;100102.37;;;10.13;96.90
62248;BME280;48237;50.140;8.486;2023-02-18T07:32:47;100108.59;;;10.21;97.52
62248;BME280;48237;50.140;8.486;2023-02-18T07:35:15;100105.63;;;10.46;94.17
62248;BME280;48237;50.140;8.486;2023-02-18T07:37:44;100108.87;;;10.05;98.61
62248;BME280;48237;50.140;8.486;2023-02-18T07:40:13;100111.44;;;9.47;99.75
62248;BME280;48237;50.140;8.486;2023-02-18T07:42:41;100101.48;;;9.84;98.62
62248;BME280;48237;50.140;8.486;2023-02-18T07:45:09;100100.29;;;10.77;92.56
62248;BME280;48237;50.140;8.486;2023-02-18T07:47:37;100100.33;;;11.09;90.03
62248;BME280;48237;50.140;8.486;2023-02-18T07:50:06;100102.50;;;10.15;92.49
62248;BME280;48237;50.140;8.486;2023-02-18T07:52:33;100102.24;;;10.20;93.05
62248;BME280;48237;50.140;8.486;2023-02-18T07:55:00;100102.03;;;10.49;92.85
62248;BME280;48237;50.140;8.486;2023-02-18T07:57:27;100101.76;;;10.36;92.07
62248;BME280;48237;50.140;8.486;2023-02-18T07:59:54;100098.11;;;9.49;97.16
62248;BME280;48237;50.140;8.486;2023-02-18T08:02:22;100094.91;;;9.36;96.21
62248;BME280;48237;50.140;8.486;2023-02-18T08:04:50;100083.60;;;9.63;96.51
62248;BME280;48237;50.140;8.486;2023-02-18T08:07:19;100077.95;;;10.04;88.74
62248;BME280;48237;50.140;8.486;2023-02-18T08:09:47;100073.38;;;9.90;91.55
62248;BME280;48237;50.140;8.486;2023-02-18T08:12:14;100079.05;;;9.63;90.74
62248;BME280;48237;50.140;8.486;2023-02-18T08:14:41;100078.08;;;10.29;87.57
62248;BME280;48237;50.140;8.486;2023-02-18T08:17:08;100081.49;;;9.90;88.84
62248;BME280;48237;50.140;8.486;2023-02-18T08:19:35;100083.35;;;9.39;91.55
62248;BME280;48237;50.140;8.486;2023-02-18T08:22:02;100081.87;;;10.34;84.53
62248;BME280;48237;50.140;8.486;2023-02-18T08:24:30;100086.72;;;9.78;89.27
62248;BME280;48237;50.140;8.486;2023-02-18T08:26:57;100085.18;;;9.34;89.23
62248;BME280;48237;50.140;8.486;2023-02-18T08:29:24;100092.78;;;9.74;86.21
62248;BME280;48237;50.140;8.486;2023-02-18T08:31:51;100099.04;;;10.19;87.52
62248;BME280;48237;50.140;8.486;2023-02-18T08:34:18;100100.32;;;10.17;87.33
62248;BME280;48237;50.140;8.486;2023-02-18T08:36:45;100104.60;;;9.93;84.64
62248;BME280;48237;50.140;8.486;2023-02-18T08:39:12;100105.90;;;10.17;83.69
62248;BME280;48237;50.140;8.486;2023-02-18T08:41:39;100100.12;;;9.70;84.47
62248;BME280;48237;50.140;8.486;2023-02-18T08:44:07;100110.65;;;9.71;86.48
62248;BME280;48237;50.140;8.486;2023-02-18T08:46:34;100109.03;;;9.87;84.55
62248;BME280;48237;50.140;8.486;2023-02-18T08:49:02;100116.22;;;10.15;84.23
62248;BME280;48237;50.140;8.486;2023-02-18T08:51:29;100113.71;;;10.37;83.36
62248;BME280;48237;50.140;8.486;2023-02-18T08:53:56;100112.88;;;9.56;85.38
62248;BME280;48237;50.140;8.486;2023-02-18T08:56:23;100104.36;;;10.14;85.10
62248;BME280;48237;50.140;8.486;2023-02-18T08:58:50;100107.14;;;10.47;81.64
62248;BME280;48237;50.140;8.486;2023-02-18T09:01:17;100108.31;;;10.53;81.25
62248;BME280;48237;50.140;8.486;2023-02-18T09:03:44;100104.78;;;10.22;81.92
62248;BME280;48237;50.140;8.486;2023-02-18T09:06:11;100095.73;;;10.21;80.27
62248;BME280;48237;50.140;8.486;2023-02-18T09:08:38;100106.27;;;10.91;80.45
62248;BME280;48237;50.140;8.486;2023-02-18T09:11:05;100107.72;;;10.17;82.34
62248;BME280;48237;50.140;8.486;2023-02-18T09:13:33;100106.15;;;10.38;82.06
62248;BME280;48237;50.140;8.486;2023-02-18T09:16:02;100102.40;;;10.73;80.88
62248;BME280;48237;50.140;8.486;2023-02-18T09:18:29;100100.19;;;11.18;79.79
62248;BME280;48237;50.140;8.486;2023-02-18T09:20:58;100101.88;;;9.62;85.82
62248;BME280;48237;50.140;8.486;2023-02-18T09:23:27;100102.34;;;10.76;80.21
62248;BME280;48237;50.140;8.486;2023-02-18T09:25:54;100105.74;;;11.11;77.61
62248;BME280;48237;50.140;8.486;2023-02-18T09:28:22;100106.88;;;10.34;80.63
62248;BME280;48237;50.140;8.486;2023-02-18T09:30:49;100108.79;;;10.39;79.51
62248;BME280;48237;50.140;8.486;2023-02-18T09:33:18;100100.64;;;10.48;80.37
62248;BME280;48237;50.140;8.486;2023-02-18T09:35:45;100099.95;;;11.01;78.84
62248;BME280;48237;50.140;8.486;2023-02-18T09:38:15;100088.99;;;11.19;78.43
62248;BME280;48237;50.140;8.486;2023-02-18T09:40:45;100094.70;;;11.28;75.73
62248;BME280;48237;50.140;8.486;2023-02-18T09:43:21;100093.02;;;11.24;75.10
62248;BME280;48237;50.140;8.486;2023-02-18T09:45:50;100103.78;;;11.17;76.72
62248;BME280;48237;50.140;8.486;2023-02-18T09:48:21;100112.35;;;10.94;77.52
62248;BME280;48237;50.140;8.486;2023-02-18T09:50:52;100117.57;;;10.97;76.19
62248;BME280;48237;50.140;8.486;2023-02-18T09:53:20;100116.39;;;10.24;79.66
62248;BME280;48237;50.140;8.486;2023-02-18T09:55:50;100118.05;;;9.94;80.31
62248;BME280;48237;50.140;8.486;2023-02-18T09:58:19;100116.89;;;10.99;78.00
62248;BME280;48237;50.140;8.486;2023-02-18T10:00:50;100117.78;;;11.15;77.30
62248;BME280;48237;50.140;8.486;2023-02-18T10:03:20;100120.36;;;10.17;84.10
62248;BME280;48237;50.140;8.486;2023-02-18T10:05:55;100122.58;;;9.97;82.27
62248;BME280;48237;50.140;8.486;2023-02-18T10:08:25;100110.96;;;10.30;80.53
62248;BME280;48237;50.140;8.486;2023-02-18T10:10:54;100112.63;;;10.68;79.84
62248;BME280;48237;50.140;8.486;2023-02-18T10:13:24;100103.40;;;10.35;80.73
62248;BME280;48237;50.140;8.486;2023-02-18T10:15:52;100102.39;;;9.75;81.38
62248;BME280;48237;50.140;8.486;2023-02-18T10:18:25;100094.47;;;10.42;80.11
62248;BME280;48237;50.140;8.486;2023-02-18T10:20:59;100088.73;;;10.50;80.81
62248;BME280;48237;50.140;8.486;2023-02-18T10:23:28;100082.35;;;10.45;80.92
62248;BME280;48237;50.140;8.486;2023-02-18T10:25:58;100095.19;;;10.43;80.01
62248;BME280;48237;50.140;8.486;2023-02-18T10:28:27;100086.77;;;9.77;85.04
62248;BME280;48237;50.140;8.486;2023-02-18T10:30:59;100094.53;;;10.26;82.26
62248;BME280;48237;50.140;8.486;2023-02-18T10:33:34;100086.33;;;10.85;79.53
62248;BME280;48237;50.140;8.486;2023-02-18T10:36:14;100086.60;;;11.08;77.67
62248;BME280;48237;50.140;8.486;2023-02-18T10:38:55;100084.84;;;10.41;79.58
62248;BME280;48237;50.140;8.486;2023-02-18T10:41:32;100082.84;;;10.85;79.57
62248;BME280;48237;50.140;8.486;2023-02-18T10:44:09;100086.43;;;10.67;77.76
62248;BME280;48237;50.140;8.486;2023-02-18T10:46:44;100088.00;;;10.38;79.57
62248;BME280;48237;50.140;8.486;2023-02-18T10:49:29;100093.49;;;10.83;78.74
62248;BME280;48237;50.140;8.486;2023-02-18T10:52:02;100090.59;;;10.98;76.66
62248;BME280;48237;50.140;8.486;2023-02-18T10:54:48;100082.65;;;10.94;77.56
62248;BME280;48237;50.140;8.486;2023-02-18T10:57:18;100084.02;;;10.70;79.05
62248;BME280;48237;50.140;8.486;2023-02-18T10:59:55;100081.25;;;10.84;79.32
62248;BME280;48237;50.140;8.486;2023-02-18T11:02:25;100070.10;;;10.67;77.75
62248;BME280;48237;50.140;8.486;2023-02-18T11:04:53;100069.81;;;10.29;82.48
62248;BME280;48237;50.140;8.486;2023-02-18T11:07:22;100059.51;;;10.62;79.74
62248;BME280;48237;50.140;8.486;2023-02-18T11:09:52;100068.28;;;10.87;81.08
62248;BME280;48237;50.140;8.486;2023-02-18T11:12:23;100067.66;;;10.74;79.27
62248;BME280;48237;50.140;8.486;2023-02-18T11:15:07;100068.51;;;10.60;79.59
62248;BME280;48237;50.140;8.486;2023-02-18T11:17:42;100058.53;;;10.68;80.15
62248;BME280;48237;50.140;8.486;2023-02-18T11:20:26;100052.64;;;10.55;79.15
62248;BME280;48237;50.140;8.486;2023-02-18T11:22:57;100054.79;;;10.30;81.06
62248;BME280;48237;50.140;8.486;2023-02-18T11:25:27;100055.24;;;10.71;80.26
62248;BME280;48237;50.140;8.486;2023-02-18T11:27:55;100048.61;;;10.80;80.47
62248;BME280;48237;50.140;8.486;2023-02-18T11:30:25;100043.17;;;11.39;77.70
62248;BME280;48237;50.140;8.486;2023-02-18T11:32:58;100040.27;;;11.18;74.89
62248;BME280;48237;50.140;8.486;2023-02-18T11:35:29;100036.70;;;11.64;75.15
62248;BME280;48237;50.140;8.486;2023-02-18T11:37:59;100045.30;;;11.01;76.87
62248;BME280;48237;50.140;8.486;2023-02-18T11:40:30;100037.51;;;10.85;76.83
62248;BME280;48237;50.140;8.486;2023-02-18T11:43:04;100037.43;;;10.77;80.01
62248;BME280;48237;50.140;8.486;2023-02-18T11:45:32;100040.15;;;11.09;77.82
62248;BME280;48237;50.140;8.486;2023-02-18T11:48:06;100040.79;;;10.97;77.36
62248;BME280;48237;50.140;8.486;2023-02-18T11:50:34;100039.65;;;10.63;78.66
62248;BME280;48237;50.140;8.486;2023-02-18T11:53:25;100034.49;;;10.69;79.63
62248;BME280;48237;50.140;8.486;2023-02-18T11:55:54;100028.41;;;10.58;78.16
62248;BME280;48237;50.140;8.486;2023-02-18T11:58:22;100033.36;;;10.68;77.86
62248;BME280;48237;50.140;8.486;2023-02-18T12:00:50;100024.21;;;11.09;77.97
62248;BME280;48237;50.140;8.486;2023-02-18T12:03:29;100017.69;;;10.74;78.44
62248;BME280;48237;50.140;8.486;2023-02-18T12:06:02;100015.11;;;11.08;76.75
62248;BME280;48237;50.140;8.486;2023-02-18T12:08:34;100008.84;;;10.87;77.10
62248;BME280;48237;50.140;8.486;2023-02-18T12:11:09;100008.22;;;11.18;78.19
62248;BME280;48237;50.140;8.486;2023-02-18T12:13:43;100004.05;;;11.33;75.72
62248;BME280;48237;50.140;8.486;2023-02-18T12:16:22;100009.98;;;11.35;75.30
62248;BME280;48237;50.140;8.486;2023-02-18T12:18:59;100003.33;;;11.07;77.78
62248;BME280;48237;50.140;8.486;2023-02-18T12:21:43;99992.81;;;12.32;72.96
62248;BME280;48237;50.140;8.486;2023-02-18T12:24:24;99989.01;;;11.94;72.65
62248;BME280;48237;50.140;8.486;2023-02-18T12:27:03;99999.96;;;11.85;73.53
62248;BME280;48237;50.140;8.486;2023-02-18T12:29:43;100005.10;;;11.90;73.57
62248;BME280;48237;50.140;8.486;2023-02-18T12:32:22;100007.47;;;11.51;73.95
62248;BME280;48237;50.140;8.486;2023-02-18T12:35:00;100006.60;;;11.50;76.00
62248;BME280;48237;50.140;8.486;2023-02-18T12:37:54;100012.21;;;11.23;76.94
62248;BME280;48237;50.140;8.486;2023-02-18T12:40:38;100009.66;;;11.35;76.89
62248;BME280;48237;50.140;8.486;2023-02-18T12:43:15;100011.78;;;11.36;76.78
62248;BME280;48237;50.140;8.486;2023-02-18T12:45:56;100009.80;;;11.46;78.67
62248;BME280;48237;50.140;8.486;2023-02-18T12:48:38;100013.51;;;11.19;78.19
62248;BME280;48237;50.140;8.486;2023-02-18T12:51:21;100011.15;;;10.17;81.51
62248;BME280;48237;50.140;8.486;2023-02-18T12:54:03;100012.66;;;10.39;84.76
62248;BME280;48237;50.140;8.486;2023-02-18T12:57:27;100011.94;;;10.32;88.67
62248;BME280;48237;50.140;8.486;2023-02-18T13:00:15;100008.42;;;10.77;92.53
62248;BME280;48237;50.140;8.486;2023-02-18T13:03:07;100011.64;;;11.50;89.82
62248;BME280;48237;50.140;8.486;2023-02-18T13:05:40;100021.05;;;10.64;93.14
62248;BME280;48237;50.140;8.486;2023-02-18T13:08:21;100016.07;;;9.84;93.34